Attica, Kansas
Current Conditions -  °F | °C
As of 11:10 AM on Sunday 23 Nov 2014 (Local Time) from KAVK Reporting Station
Broken Clouds Broken Clouds  
Wind Chill: 57°   Ceiling: 3700
Heat Index: 57°   Visibility: 10mi
Dew Point: 48°   Wind: 13mph
Humidity: 72%   Direction: 350°N
Pressure: 29.43"   Gusts: NA
Location:  37.24°N, 98.23°W
Report Text: KAVK 231710Z AUTO 35011KT 10SM FEW018 BKN037 14/09 A2943 RMK AO2
Loading
Personal Weather Stations






























Interactive Weather Map New forecast layout! Learn more

10-Day Weather Forecast

Advertisements
Track Severe Weather on mobile